sensor_id;sensor_type;location;lat;lon;timestamp;P1;durP1;ratioP1;P2;durP2;ratioP2
62852;SDS011;49205;44.868;38.140;2022-10-16T00:00:03;8.25;;;5.85;;
62852;SDS011;49205;44.868;38.140;2022-10-16T00:02:33;9.48;;;5.80;;
62852;SDS011;49205;44.868;38.140;2022-10-16T00:05:02;8.85;;;6.30;;
62852;SDS011;49205;44.868;38.140;2022-10-16T00:07:31;10.03;;;5.08;;
62852;SDS011;49205;44.868;38.140;2022-10-16T00:10:00;15.85;;;5.62;;
62852;SDS011;49205;44.868;38.140;2022-10-16T00:12:29;9.95;;;6.15;;
62852;SDS011;49205;44.868;38.140;2022-10-16T00:14:59;9.65;;;6.45;;
62852;SDS011;49205;44.868;38.140;2022-10-16T00:17:28;7.97;;;5.40;;
62852;SDS011;49205;44.868;38.140;2022-10-16T00:19:57;12.18;;;6.00;;
62852;SDS011;49205;44.868;38.140;2022-10-16T00:22:26;9.50;;;5.22;;
62852;SDS011;49205;44.868;38.140;2022-10-16T00:24:56;12.35;;;6.83;;
62852;SDS011;49205;44.868;38.140;2022-10-16T00:27:25;8.35;;;5.25;;
62852;SDS011;49205;44.868;38.140;2022-10-16T00:29:54;7.85;;;5.67;;
62852;SDS011;49205;44.868;38.140;2022-10-16T00:32:23;11.10;;;5.95;;
62852;SDS011;49205;44.868;38.140;2022-10-16T00:34:52;8.63;;;5.87;;
62852;SDS011;49205;44.868;38.140;2022-10-16T00:37:21;12.23;;;6.00;;
62852;SDS011;49205;44.868;38.140;2022-10-16T00:39:51;11.22;;;5.95;;
62852;SDS011;49205;44.868;38.140;2022-10-16T00:42:20;8.43;;;6.05;;
62852;SDS011;49205;44.868;38.140;2022-10-16T00:44:51;8.08;;;6.17;;
62852;SDS011;49205;44.868;38.140;2022-10-16T00:47:33;8.50;;;5.65;;
62852;SDS011;49205;44.868;38.140;2022-10-16T00:50:16;9.45;;;5.70;;
62852;SDS011;49205;44.868;38.140;2022-10-16T00:52:48;13.10;;;6.62;;
62852;SDS011;49205;44.868;38.140;2022-10-16T00:55:19;8.85;;;5.60;;
62852;SDS011;49205;44.868;38.140;2022-10-16T00:57:49;7.60;;;6.08;;
62852;SDS011;49205;44.868;38.140;2022-10-16T01:00:20;8.13;;;5.87;;
62852;SDS011;49205;44.868;38.140;2022-10-16T01:03:00;8.83;;;6.55;;
62852;SDS011;49205;44.868;38.140;2022-10-16T01:05:39;10.68;;;6.05;;
62852;SDS011;49205;44.868;38.140;2022-10-16T01:10:44;11.10;;;5.03;;
62852;SDS011;49205;44.868;38.140;2022-10-16T01:13:22;7.45;;;5.65;;
62852;SDS011;49205;44.868;38.140;2022-10-16T01:15:56;7.60;;;5.40;;
62852;SDS011;49205;44.868;38.140;2022-10-16T01:18:35;8.23;;;5.37;;
62852;SDS011;49205;44.868;38.140;2022-10-16T01:21:22;14.50;;;5.65;;
62852;SDS011;49205;44.868;38.140;2022-10-16T01:27:07;7.45;;;5.05;;
62852;SDS011;49205;44.868;38.140;2022-10-16T01:32:36;6.55;;;4.65;;
62852;SDS011;49205;44.868;38.140;2022-10-16T01:35:14;7.20;;;5.40;;
62852;SDS011;49205;44.868;38.140;2022-10-16T01:38:06;8.08;;;5.17;;
62852;SDS011;49205;44.868;38.140;2022-10-16T01:40:44;7.65;;;5.25;;
62852;SDS011;49205;44.868;38.140;2022-10-16T01:43:14;11.33;;;5.78;;
62852;SDS011;49205;44.868;38.140;2022-10-16T01:45:46;9.13;;;5.67;;
62852;SDS011;49205;44.868;38.140;2022-10-16T01:48:19;12.00;;;6.00;;
62852;SDS011;49205;44.868;38.140;2022-10-16T01:50:55;10.50;;;5.33;;
62852;SDS011;49205;44.868;38.140;2022-10-16T01:53:25;6.03;;;5.03;;
62852;SDS011;49205;44.868;38.140;2022-10-16T01:55:54;6.58;;;5.15;;
62852;SDS011;49205;44.868;38.140;2022-10-16T01:58:25;6.70;;;5.10;;
62852;SDS011;49205;44.868;38.140;2022-10-16T02:00:58;9.03;;;5.00;;
62852;SDS011;49205;44.868;38.140;2022-10-16T02:03:27;5.45;;;4.75;;
62852;SDS011;49205;44.868;38.140;2022-10-16T02:05:57;7.42;;;4.95;;
62852;SDS011;49205;44.868;38.140;2022-10-16T02:08:27;7.58;;;4.65;;
62852;SDS011;49205;44.868;38.140;2022-10-16T02:10:59;6.97;;;5.12;;
62852;SDS011;49205;44.868;38.140;2022-10-16T02:13:45;6.62;;;5.05;;
62852;SDS011;49205;44.868;38.140;2022-10-16T02:16:19;6.67;;;4.92;;
62852;SDS011;49205;44.868;38.140;2022-10-16T02:18:48;8.20;;;4.65;;
62852;SDS011;49205;44.868;38.140;2022-10-16T02:21:19;12.18;;;5.15;;
62852;SDS011;49205;44.868;38.140;2022-10-16T02:29:15;7.62;;;5.08;;
62852;SDS011;49205;44.868;38.140;2022-10-16T02:31:48;8.13;;;4.95;;
62852;SDS011;49205;44.868;38.140;2022-10-16T02:34:19;7.85;;;5.53;;
62852;SDS011;49205;44.868;38.140;2022-10-16T02:36:50;7.33;;;5.20;;
62852;SDS011;49205;44.868;38.140;2022-10-16T02:39:21;6.72;;;4.92;;
62852;SDS011;49205;44.868;38.140;2022-10-16T02:41:51;6.72;;;5.40;;
62852;SDS011;49205;44.868;38.140;2022-10-16T02:44:20;8.40;;;4.65;;
62852;SDS011;49205;44.868;38.140;2022-10-16T02:46:49;11.73;;;5.05;;
62852;SDS011;49205;44.868;38.140;2022-10-16T02:49:18;10.65;;;5.83;;
62852;SDS011;49205;44.868;38.140;2022-10-16T02:51:47;8.35;;;5.55;;
62852;SDS011;49205;44.868;38.140;2022-10-16T02:54:16;7.15;;;5.83;;
62852;SDS011;49205;44.868;38.140;2022-10-16T02:56:46;8.15;;;5.15;;
62852;SDS011;49205;44.868;38.140;2022-10-16T02:59:15;10.10;;;5.35;;
62852;SDS011;49205;44.868;38.140;2022-10-16T03:01:45;7.50;;;4.95;;
62852;SDS011;49205;44.868;38.140;2022-10-16T03:04:14;7.15;;;4.58;;
62852;SDS011;49205;44.868;38.140;2022-10-16T03:06:43;8.10;;;5.25;;
62852;SDS011;49205;44.868;38.140;2022-10-16T03:09:12;9.30;;;5.55;;
62852;SDS011;49205;44.868;38.140;2022-10-16T03:11:42;10.23;;;5.58;;
62852;SDS011;49205;44.868;38.140;2022-10-16T03:14:11;8.80;;;5.62;;
62852;SDS011;49205;44.868;38.140;2022-10-16T03:16:40;9.30;;;5.45;;
62852;SDS011;49205;44.868;38.140;2022-10-16T03:19:09;8.25;;;5.10;;
62852;SDS011;49205;44.868;38.140;2022-10-16T03:21:38;7.50;;;4.53;;
62852;SDS011;49205;44.868;38.140;2022-10-16T03:24:07;10.63;;;5.45;;
62852;SDS011;49205;44.868;38.140;2022-10-16T03:26:38;6.83;;;4.85;;
62852;SDS011;49205;44.868;38.140;2022-10-16T03:29:07;8.55;;;5.25;;
62852;SDS011;49205;44.868;38.140;2022-10-16T03:31:37;7.03;;;4.70;;
62852;SDS011;49205;44.868;38.140;2022-10-16T03:34:06;8.63;;;5.05;;
62852;SDS011;49205;44.868;38.140;2022-10-16T03:36:35;6.78;;;4.78;;
62852;SDS011;49205;44.868;38.140;2022-10-16T03:39:05;6.75;;;5.03;;
62852;SDS011;49205;44.868;38.140;2022-10-16T03:41:33;5.70;;;4.50;;
62852;SDS011;49205;44.868;38.140;2022-10-16T03:44:02;6.47;;;4.42;;
62852;SDS011;49205;44.868;38.140;2022-10-16T03:46:31;5.37;;;3.95;;
62852;SDS011;49205;44.868;38.140;2022-10-16T03:49:01;6.03;;;4.22;;
62852;SDS011;49205;44.868;38.140;2022-10-16T03:51:30;9.28;;;4.33;;
62852;SDS011;49205;44.868;38.140;2022-10-16T03:53:59;7.83;;;4.70;;
62852;SDS011;49205;44.868;38.140;2022-10-16T03:56:28;8.15;;;4.33;;
62852;SDS011;49205;44.868;38.140;2022-10-16T03:58:57;6.22;;;4.87;;
62852;SDS011;49205;44.868;38.140;2022-10-16T04:01:26;6.17;;;3.90;;
62852;SDS011;49205;44.868;38.140;2022-10-16T04:03:55;5.70;;;3.90;;
62852;SDS011;49205;44.868;38.140;2022-10-16T04:06:24;5.72;;;4.22;;
62852;SDS011;49205;44.868;38.140;2022-10-16T04:08:53;6.08;;;4.55;;
62852;SDS011;49205;44.868;38.140;2022-10-16T04:11:23;7.58;;;4.45;;
62852;SDS011;49205;44.868;38.140;2022-10-16T04:13:52;5.05;;;3.95;;
62852;SDS011;49205;44.868;38.140;2022-10-16T04:16:21;5.37;;;4.12;;
62852;SDS011;49205;44.868;38.140;2022-10-16T04:18:50;8.90;;;6.08;;
62852;SDS011;49205;44.868;38.140;2022-10-16T04:21:19;7.83;;;5.03;;
62852;SDS011;49205;44.868;38.140;2022-10-16T04:23:49;8.28;;;5.58;;
62852;SDS011;49205;44.868;38.140;2022-10-16T04:26:18;5.65;;;4.53;;
62852;SDS011;49205;44.868;38.140;2022-10-16T04:28:47;8.35;;;4.10;;
62852;SDS011;49205;44.868;38.140;2022-10-16T04:31:16;6.78;;;4.40;;
62852;SDS011;49205;44.868;38.140;2022-10-16T04:33:45;9.80;;;5.12;;
62852;SDS011;49205;44.868;38.140;2022-10-16T04:36:15;8.60;;;5.90;;
62852;SDS011;49205;44.868;38.140;2022-10-16T04:38:44;9.40;;;6.22;;
62852;SDS011;49205;44.868;38.140;2022-10-16T04:41:13;9.78;;;6.08;;
62852;SDS011;49205;44.868;38.140;2022-10-16T04:43:42;11.43;;;5.83;;
62852;SDS011;49205;44.868;38.140;2022-10-16T04:46:11;8.75;;;5.65;;
62852;SDS011;49205;44.868;38.140;2022-10-16T04:48:40;8.85;;;5.10;;
62852;SDS011;49205;44.868;38.140;2022-10-16T04:51:09;10.65;;;9.53;;
62852;SDS011;49205;44.868;38.140;2022-10-16T04:53:39;19.30;;;10.72;;
62852;SDS011;49205;44.868;38.140;2022-10-16T04:56:08;11.93;;;8.25;;
62852;SDS011;49205;44.868;38.140;2022-10-16T04:58:37;10.05;;;6.80;;
62852;SDS011;49205;44.868;38.140;2022-10-16T05:01:06;8.90;;;4.70;;
62852;SDS011;49205;44.868;38.140;2022-10-16T05:03:35;6.62;;;4.37;;
62852;SDS011;49205;44.868;38.140;2022-10-16T05:06:05;4.65;;;3.47;;
62852;SDS011;49205;44.868;38.140;2022-10-16T05:08:34;7.30;;;5.03;;
62852;SDS011;49205;44.868;38.140;2022-10-16T05:11:03;4.25;;;3.85;;
62852;SDS011;49205;44.868;38.140;2022-10-16T05:13:33;6.78;;;4.67;;
62852;SDS011;49205;44.868;38.140;2022-10-16T05:16:02;5.33;;;3.80;;
62852;SDS011;49205;44.868;38.140;2022-10-16T05:18:31;5.80;;;4.03;;
62852;SDS011;49205;44.868;38.140;2022-10-16T05:21:00;8.95;;;4.58;;
62852;SDS011;49205;44.868;38.140;2022-10-16T05:23:29;4.60;;;3.85;;
62852;SDS011;49205;44.868;38.140;2022-10-16T05:25:58;7.85;;;4.30;;
62852;SDS011;49205;44.868;38.140;2022-10-16T05:28:28;8.18;;;5.00;;
62852;SDS011;49205;44.868;38.140;2022-10-16T05:30:58;4.42;;;3.50;;
62852;SDS011;49205;44.868;38.140;2022-10-16T05:33:28;11.35;;;3.95;;
62852;SDS011;49205;44.868;38.140;2022-10-16T05:36:00;5.17;;;4.25;;
62852;SDS011;49205;44.868;38.140;2022-10-16T05:38:31;5.10;;;4.42;;
62852;SDS011;49205;44.868;38.140;2022-10-16T05:41:02;5.65;;;4.22;;
62852;SDS011;49205;44.868;38.140;2022-10-16T05:43:32;6.15;;;4.37;;
62852;SDS011;49205;44.868;38.140;2022-10-16T05:46:05;5.75;;;4.47;;
62852;SDS011;49205;44.868;38.140;2022-10-16T05:48:34;6.45;;;4.33;;
62852;SDS011;49205;44.868;38.140;2022-10-16T05:51:04;6.83;;;4.60;;
62852;SDS011;49205;44.868;38.140;2022-10-16T05:53:35;9.00;;;4.60;;
62852;SDS011;49205;44.868;38.140;2022-10-16T05:56:06;7.28;;;4.08;;
62852;SDS011;49205;44.868;38.140;2022-10-16T05:58:37;6.12;;;4.22;;
62852;SDS011;49205;44.868;38.140;2022-10-16T06:01:14;5.53;;;3.92;;
62852;SDS011;49205;44.868;38.140;2022-10-16T06:03:39;8.68;;;4.50;;
62852;SDS011;49205;44.868;38.140;2022-10-16T06:06:12;7.87;;;4.65;;
62852;SDS011;49205;44.868;38.140;2022-10-16T06:08:43;6.35;;;4.47;;
62852;SDS011;49205;44.868;38.140;2022-10-16T06:11:16;7.58;;;5.25;;
62852;SDS011;49205;44.868;38.140;2022-10-16T06:13:55;5.90;;;4.55;;
62852;SDS011;49205;44.868;38.140;2022-10-16T06:16:23;8.75;;;5.15;;
62852;SDS011;49205;44.868;38.140;2022-10-16T06:18:53;8.90;;;5.75;;
62852;SDS011;49205;44.868;38.140;2022-10-16T06:21:23;10.23;;;5.85;;
62852;SDS011;49205;44.868;38.140;2022-10-16T06:23:53;7.78;;;4.97;;
62852;SDS011;49205;44.868;38.140;2022-10-16T06:26:24;40.45;;;8.23;;
62852;SDS011;49205;44.868;38.140;2022-10-16T06:28:54;17.15;;;6.87;;
62852;SDS011;49205;44.868;38.140;2022-10-16T06:31:25;7.90;;;5.45;;
62852;SDS011;49205;44.868;38.140;2022-10-16T06:33:57;9.30;;;5.55;;
62852;SDS011;49205;44.868;38.140;2022-10-16T06:36:26;14.58;;;9.18;;
62852;SDS011;49205;44.868;38.140;2022-10-16T06:38:56;20.43;;;11.22;;
62852;SDS011;49205;44.868;38.140;2022-10-16T06:41:25;15.08;;;10.05;;
62852;SDS011;49205;44.868;38.140;2022-10-16T06:43:54;18.60;;;11.03;;
62852;SDS011;49205;44.868;38.140;2022-10-16T06:46:24;23.77;;;14.47;;
62852;SDS011;49205;44.868;38.140;2022-10-16T06:48:53;20.97;;;12.70;;
62852;SDS011;49205;44.868;38.140;2022-10-16T06:51:23;14.03;;;8.98;;
62852;SDS011;49205;44.868;38.140;2022-10-16T06:53:53;14.73;;;9.08;;
62852;SDS011;49205;44.868;38.140;2022-10-16T06:56:26;9.00;;;7.50;;
62852;SDS011;49205;44.868;38.140;2022-10-16T06:58:57;15.13;;;8.13;;
62852;SDS011;49205;44.868;38.140;2022-10-16T07:01:27;11.30;;;6.20;;
62852;SDS011;49205;44.868;38.140;2022-10-16T07:03:56;10.05;;;7.15;;
62852;SDS011;49205;44.868;38.140;2022-10-16T07:06:26;10.00;;;6.62;;
62852;SDS011;49205;44.868;38.140;2022-10-16T07:08:56;6.62;;;4.70;;
62852;SDS011;49205;44.868;38.140;2022-10-16T07:11:25;10.60;;;6.60;;
62852;SDS011;49205;44.868;38.140;2022-10-16T07:13:54;11.97;;;7.08;;
62852;SDS011;49205;44.868;38.140;2022-10-16T07:16:24;13.28;;;7.53;;
62852;SDS011;49205;44.868;38.140;2022-10-16T07:18:55;14.10;;;6.70;;
62852;SDS011;49205;44.868;38.140;2022-10-16T07:21:29;10.58;;;5.83;;
62852;SDS011;49205;44.868;38.140;2022-10-16T07:24:01;10.93;;;6.78;;
62852;SDS011;49205;44.868;38.140;2022-10-16T07:26:32;11.75;;;6.42;;
62852;SDS011;49205;44.868;38.140;2022-10-16T07:29:02;22.73;;;10.25;;
62852;SDS011;49205;44.868;38.140;2022-10-16T07:31:31;12.47;;;6.90;;
62852;SDS011;49205;44.868;38.140;2022-10-16T07:34:01;14.05;;;6.92;;
62852;SDS011;49205;44.868;38.140;2022-10-16T07:36:30;11.73;;;7.17;;
62852;SDS011;49205;44.868;38.140;2022-10-16T07:38:59;16.10;;;8.55;;
62852;SDS011;49205;44.868;38.140;2022-10-16T07:41:28;13.43;;;7.15;;
62852;SDS011;49205;44.868;38.140;2022-10-16T07:43:59;11.65;;;6.90;;
62852;SDS011;49205;44.868;38.140;2022-10-16T07:46:29;13.68;;;6.50;;
62852;SDS011;49205;44.868;38.140;2022-10-16T07:49:00;14.40;;;6.03;;
62852;SDS011;49205;44.868;38.140;2022-10-16T07:51:29;8.98;;;6.47;;
62852;SDS011;49205;44.868;38.140;2022-10-16T07:53:59;13.18;;;7.12;;
62852;SDS011;49205;44.868;38.140;2022-10-16T07:56:29;16.80;;;9.18;;
62852;SDS011;49205;44.868;38.140;2022-10-16T07:58:59;15.35;;;9.60;;
62852;SDS011;49205;44.868;38.140;2022-10-16T08:01:28;15.32;;;8.78;;
62852;SDS011;49205;44.868;38.140;2022-10-16T08:03:58;13.45;;;7.35;;
62852;SDS011;49205;44.868;38.140;2022-10-16T08:06:27;15.18;;;7.55;;
62852;SDS011;49205;44.868;38.140;2022-10-16T08:08:56;9.20;;;6.58;;
62852;SDS011;49205;44.868;38.140;2022-10-16T08:11:26;8.25;;;5.33;;
62852;SDS011;49205;44.868;38.140;2022-10-16T08:13:55;17.60;;;9.45;;
62852;SDS011;49205;44.868;38.140;2022-10-16T08:16:25;17.62;;;6.78;;
62852;SDS011;49205;44.868;38.140;2022-10-16T08:18:54;13.18;;;7.53;;
62852;SDS011;49205;44.868;38.140;2022-10-16T08:21:23;9.15;;;6.62;;
62852;SDS011;49205;44.868;38.140;2022-10-16T08:23:53;12.80;;;6.95;;
62852;SDS011;49205;44.868;38.140;2022-10-16T08:26:22;9.78;;;5.97;;
62852;SDS011;49205;44.868;38.140;2022-10-16T08:28:51;8.15;;;6.20;;
62852;SDS011;49205;44.868;38.140;2022-10-16T08:31:20;6.42;;;5.03;;
62852;SDS011;49205;44.868;38.140;2022-10-16T08:33:50;12.00;;;6.55;;
62852;SDS011;49205;44.868;38.140;2022-10-16T08:36:19;11.90;;;7.35;;
62852;SDS011;49205;44.868;38.140;2022-10-16T08:38:48;13.80;;;7.83;;
62852;SDS011;49205;44.868;38.140;2022-10-16T08:44:57;13.13;;;7.30;;
62852;SDS011;49205;44.868;38.140;2022-10-16T08:49:57;11.43;;;6.58;;
62852;SDS011;49205;44.868;38.140;2022-10-16T08:52:39;12.70;;;5.80;;
62852;SDS011;49205;44.868;38.140;2022-10-16T08:55:17;12.13;;;6.78;;
62852;SDS011;49205;44.868;38.140;2022-10-16T08:57:44;15.50;;;9.23;;
62852;SDS011;49205;44.868;38.140;2022-10-16T09:00:14;13.95;;;7.78;;
62852;SDS011;49205;44.868;38.140;2022-10-16T09:03:10;11.25;;;7.00;;
62852;SDS011;49205;44.868;38.140;2022-10-16T09:05:33;9.95;;;5.92;;
62852;SDS011;49205;44.868;38.140;2022-10-16T09:13:59;9.60;;;5.65;;
62852;SDS011;49205;44.868;38.140;2022-10-16T09:16:39;8.53;;;5.78;;
62852;SDS011;49205;44.868;38.140;2022-10-16T09:19:13;15.03;;;6.37;;
62852;SDS011;49205;44.868;38.140;2022-10-16T09:21:41;15.63;;;6.47;;
62852;SDS011;49205;44.868;38.140;2022-10-16T09:24:13;7.33;;;6.00;;
62852;SDS011;49205;44.868;38.140;2022-10-16T09:26:44;12.40;;;7.92;;
62852;SDS011;49205;44.868;38.140;2022-10-16T09:29:14;10.03;;;6.17;;
62852;SDS011;49205;44.868;38.140;2022-10-16T09:31:46;10.72;;;6.08;;
62852;SDS011;49205;44.868;38.140;2022-10-16T09:36:51;16.75;;;6.47;;
62852;SDS011;49205;44.868;38.140;2022-10-16T09:39:20;12.10;;;7.15;;
62852;SDS011;49205;44.868;38.140;2022-10-16T09:41:49;10.60;;;7.35;;
62852;SDS011;49205;44.868;38.140;2022-10-16T09:44:26;11.18;;;7.30;;
62852;SDS011;49205;44.868;38.140;2022-10-16T09:47:12;8.10;;;5.87;;
62852;SDS011;49205;44.868;38.140;2022-10-16T09:49:50;16.32;;;6.40;;
62852;SDS011;49205;44.868;38.140;2022-10-16T09:52:29;8.90;;;5.45;;
62852;SDS011;49205;44.868;38.140;2022-10-16T09:54:59;9.45;;;6.53;;
62852;SDS011;49205;44.868;38.140;2022-10-16T09:57:52;8.78;;;5.92;;
62852;SDS011;49205;44.868;38.140;2022-10-16T10:00:23;9.43;;;6.17;;
62852;SDS011;49205;44.868;38.140;2022-10-16T10:02:53;9.63;;;6.10;;
62852;SDS011;49205;44.868;38.140;2022-10-16T10:05:24;8.93;;;5.80;;
62852;SDS011;49205;44.868;38.140;2022-10-16T10:07:56;7.60;;;5.12;;
62852;SDS011;49205;44.868;38.140;2022-10-16T10:10:27;15.78;;;8.78;;
62852;SDS011;49205;44.868;38.140;2022-10-16T10:12:57;8.93;;;7.75;;
62852;SDS011;49205;44.868;38.140;2022-10-16T10:15:27;12.50;;;6.22;;
62852;SDS011;49205;44.868;38.140;2022-10-16T10:17:58;8.28;;;5.65;;
62852;SDS011;49205;44.868;38.140;2022-10-16T10:20:30;10.18;;;6.53;;
62852;SDS011;49205;44.868;38.140;2022-10-16T10:23:01;13.60;;;9.18;;
62852;SDS011;49205;44.868;38.140;2022-10-16T10:25:56;6.92;;;6.03;;
62852;SDS011;49205;44.868;38.140;2022-10-16T10:31:05;8.35;;;6.12;;
62852;SDS011;49205;44.868;38.140;2022-10-16T10:33:50;12.80;;;6.40;;
62852;SDS011;49205;44.868;38.140;2022-10-16T10:36:24;16.45;;;6.10;;
62852;SDS011;49205;44.868;38.140;2022-10-16T10:39:05;8.75;;;5.60;;
62852;SDS011;49205;44.868;38.140;2022-10-16T10:41:56;8.98;;;5.42;;
62852;SDS011;49205;44.868;38.140;2022-10-16T10:50:20;7.95;;;6.15;;
62852;SDS011;49205;44.868;38.140;2022-10-16T10:52:53;6.95;;;5.55;;
62852;SDS011;49205;44.868;38.140;2022-10-16T11:04:19;11.57;;;7.30;;
62852;SDS011;49205;44.868;38.140;2022-10-16T11:07:33;7.70;;;6.62;;
62852;SDS011;49205;44.868;38.140;2022-10-16T11:09:25;9.65;;;6.78;;
62852;SDS011;49205;44.868;38.140;2022-10-16T11:14:46;18.00;;;7.20;;
62852;SDS011;49205;44.868;38.140;2022-10-16T11:17:23;10.98;;;6.20;;
62852;SDS011;49205;44.868;38.140;2022-10-16T11:19:53;9.38;;;6.47;;
62852;SDS011;49205;44.868;38.140;2022-10-16T11:28:13;8.25;;;7.45;;
62852;SDS011;49205;44.868;38.140;2022-10-16T11:31:08;8.60;;;6.62;;
62852;SDS011;49205;44.868;38.140;2022-10-16T11:33:51;8.08;;;5.28;;
62852;SDS011;49205;44.868;38.140;2022-10-16T11:41:42;10.10;;;6.08;;
62852;SDS011;49205;44.868;38.140;2022-10-16T11:44:18;8.58;;;6.53;;
62852;SDS011;49205;44.868;38.140;2022-10-16T11:49:34;7.60;;;5.05;;
62852;SDS011;49205;44.868;38.140;2022-10-16T11:58:00;10.35;;;6.83;;
62852;SDS011;49205;44.868;38.140;2022-10-16T12:00:46;11.08;;;7.37;;
62852;SDS011;49205;44.868;38.140;2022-10-16T12:03:34;13.00;;;8.30;;
62852;SDS011;49205;44.868;38.140;2022-10-16T12:06:25;15.50;;;9.75;;
62852;SDS011;49205;44.868;38.140;2022-10-16T12:08:46;12.80;;;9.03;;
62852;SDS011;49205;44.868;38.140;2022-10-16T12:16:54;20.77;;;10.65;;
62852;SDS011;49205;44.868;38.140;2022-10-16T12:19:41;23.00;;;11.15;;
62852;SDS011;49205;44.868;38.140;2022-10-16T12:22:15;18.65;;;11.85;;
62852;SDS011;49205;44.868;38.140;2022-10-16T12:27:27;9.95;;;5.58;;
62852;SDS011;49205;44.868;38.140;2022-10-16T12:29:59;14.53;;;10.20;;
62852;SDS011;49205;44.868;38.140;2022-10-16T12:32:39;15.40;;;10.35;;
62852;SDS011;49205;44.868;38.140;2022-10-16T12:35:18;13.35;;;8.25;;
62852;SDS011;49205;44.868;38.140;2022-10-16T12:37:44;11.53;;;6.70;;
62852;SDS011;49205;44.868;38.140;2022-10-16T12:40:16;7.10;;;5.58;;
62852;SDS011;49205;44.868;38.140;2022-10-16T12:42:51;11.63;;;7.50;;
62852;SDS011;49205;44.868;38.140;2022-10-16T12:47:55;15.20;;;9.75;;
62852;SDS011;49205;44.868;38.140;2022-10-16T12:50:32;26.87;;;16.32;;
62852;SDS011;49205;44.868;38.140;2022-10-16T12:53:03;25.52;;;15.93;;
62852;SDS011;49205;44.868;38.140;2022-10-16T12:55:35;25.20;;;15.53;;
62852;SDS011;49205;44.868;38.140;2022-10-16T12:58:09;22.80;;;13.35;;
62852;SDS011;49205;44.868;38.140;2022-10-16T13:00:44;16.20;;;11.80;;
62852;SDS011;49205;44.868;38.140;2022-10-16T13:06:05;22.90;;;14.50;;
62852;SDS011;49205;44.868;38.140;2022-10-16T13:09:02;23.30;;;12.73;;
62852;SDS011;49205;44.868;38.140;2022-10-16T13:11:57;28.77;;;16.25;;
62852;SDS011;49205;44.868;38.140;2022-10-16T13:17:17;58.10;;;31.57;;
62852;SDS011;49205;44.868;38.140;2022-10-16T13:20:22;63.52;;;32.17;;
62852;SDS011;49205;44.868;38.140;2022-10-16T13:31:21;23.77;;;14.40;;
62852;SDS011;49205;44.868;38.140;2022-10-16T13:33:57;13.93;;;8.38;;
62852;SDS011;49205;44.868;38.140;2022-10-16T13:36:33;17.07;;;11.53;;
62852;SDS011;49205;44.868;38.140;2022-10-16T13:41:29;32.95;;;18.87;;
62852;SDS011;49205;44.868;38.140;2022-10-16T13:43:59;36.98;;;18.57;;
62852;SDS011;49205;44.868;38.140;2022-10-16T13:46:28;45.20;;;23.75;;
62852;SDS011;49205;44.868;38.140;2022-10-16T13:48:59;47.65;;;26.15;;
62852;SDS011;49205;44.868;38.140;2022-10-16T13:51:30;50.52;;;25.23;;
62852;SDS011;49205;44.868;38.140;2022-10-16T13:54:00;39.42;;;20.65;;
62852;SDS011;49205;44.868;38.140;2022-10-16T13:56:29;35.17;;;21.48;;
62852;SDS011;49205;44.868;38.140;2022-10-16T13:59:04;26.10;;;12.55;;
62852;SDS011;49205;44.868;38.140;2022-10-16T14:01:35;54.77;;;31.00;;
62852;SDS011;49205;44.868;38.140;2022-10-16T14:04:11;20.62;;;10.85;;
62852;SDS011;49205;44.868;38.140;2022-10-16T14:06:43;13.62;;;7.58;;
62852;SDS011;49205;44.868;38.140;2022-10-16T14:11:53;19.40;;;10.85;;
62852;SDS011;49205;44.868;38.140;2022-10-16T14:14:23;20.62;;;10.85;;
62852;SDS011;49205;44.868;38.140;2022-10-16T14:16:54;30.30;;;14.07;;
62852;SDS011;49205;44.868;38.140;2022-10-16T14:19:28;24.87;;;14.40;;
62852;SDS011;49205;44.868;38.140;2022-10-16T14:21:58;33.07;;;17.60;;
62852;SDS011;49205;44.868;38.140;2022-10-16T14:27:01;41.58;;;22.82;;
62852;SDS011;49205;44.868;38.140;2022-10-16T14:29:32;42.00;;;21.30;;
62852;SDS011;49205;44.868;38.140;2022-10-16T14:32:20;39.15;;;20.23;;
62852;SDS011;49205;44.868;38.140;2022-10-16T14:34:35;39.05;;;19.95;;
62852;SDS011;49205;44.868;38.140;2022-10-16T14:37:20;44.42;;;26.33;;
62852;SDS011;49205;44.868;38.140;2022-10-16T14:39:53;44.35;;;27.22;;
62852;SDS011;49205;44.868;38.140;2022-10-16T14:42:19;39.50;;;23.18;;
62852;SDS011;49205;44.868;38.140;2022-10-16T14:44:54;36.58;;;21.27;;
62852;SDS011;49205;44.868;38.140;2022-10-16T14:47:24;40.67;;;22.62;;
62852;SDS011;49205;44.868;38.140;2022-10-16T14:49:55;37.95;;;21.23;;
62852;SDS011;49205;44.868;38.140;2022-10-16T14:52:25;37.90;;;19.95;;
62852;SDS011;49205;44.868;38.140;2022-10-16T14:54:55;33.83;;;16.73;;
62852;SDS011;49205;44.868;38.140;2022-10-16T14:57:24;27.80;;;17.27;;
62852;SDS011;49205;44.868;38.140;2022-10-16T14:59:55;30.10;;;16.05;;
62852;SDS011;49205;44.868;38.140;2022-10-16T15:02:33;30.48;;;15.95;;
62852;SDS011;49205;44.868;38.140;2022-10-16T15:07:51;29.00;;;17.10;;
62852;SDS011;49205;44.868;38.140;2022-10-16T15:10:21;30.20;;;15.80;;
62852;SDS011;49205;44.868;38.140;2022-10-16T15:12:52;25.60;;;16.87;;
62852;SDS011;49205;44.868;38.140;2022-10-16T15:15:24;32.08;;;19.52;;
62852;SDS011;49205;44.868;38.140;2022-10-16T15:17:54;37.42;;;19.77;;
62852;SDS011;49205;44.868;38.140;2022-10-16T15:20:27;44.63;;;22.45;;
62852;SDS011;49205;44.868;38.140;2022-10-16T15:23:05;46.98;;;24.98;;
62852;SDS011;49205;44.868;38.140;2022-10-16T15:25:32;54.98;;;27.27;;
62852;SDS011;49205;44.868;38.140;2022-10-16T15:28:03;52.60;;;30.55;;
62852;SDS011;49205;44.868;38.140;2022-10-16T15:30:34;53.98;;;27.58;;
62852;SDS011;49205;44.868;38.140;2022-10-16T15:33:04;51.25;;;25.72;;
62852;SDS011;49205;44.868;38.140;2022-10-16T15:35:34;42.27;;;25.65;;
62852;SDS011;49205;44.868;38.140;2022-10-16T15:38:04;54.00;;;27.50;;
62852;SDS011;49205;44.868;38.140;2022-10-16T15:40:33;47.10;;;26.87;;
62852;SDS011;49205;44.868;38.140;2022-10-16T15:43:02;59.15;;;29.95;;
62852;SDS011;49205;44.868;38.140;2022-10-16T15:45:31;53.80;;;29.02;;
62852;SDS011;49205;44.868;38.140;2022-10-16T15:48:00;57.13;;;31.02;;
62852;SDS011;49205;44.868;38.140;2022-10-16T15:50:31;56.77;;;32.40;;
62852;SDS011;49205;44.868;38.140;2022-10-16T15:53:00;64.30;;;36.95;;
62852;SDS011;49205;44.868;38.140;2022-10-16T15:55:29;50.28;;;29.48;;
62852;SDS011;49205;44.868;38.140;2022-10-16T15:57:59;42.00;;;25.27;;
62852;SDS011;49205;44.868;38.140;2022-10-16T16:00:28;37.67;;;21.40;;
62852;SDS011;49205;44.868;38.140;2022-10-16T16:02:57;35.68;;;20.62;;
62852;SDS011;49205;44.868;38.140;2022-10-16T16:05:26;27.27;;;15.63;;
62852;SDS011;49205;44.868;38.140;2022-10-16T16:07:56;29.65;;;16.27;;
62852;SDS011;49205;44.868;38.140;2022-10-16T16:10:25;22.73;;;13.43;;
62852;SDS011;49205;44.868;38.140;2022-10-16T16:12:54;21.02;;;11.65;;
62852;SDS011;49205;44.868;38.140;2022-10-16T16:15:25;14.25;;;9.63;;
62852;SDS011;49205;44.868;38.140;2022-10-16T16:17:54;17.23;;;10.38;;
62852;SDS011;49205;44.868;38.140;2022-10-16T16:20:25;18.20;;;9.78;;
62852;SDS011;49205;44.868;38.140;2022-10-16T16:22:54;20.30;;;9.65;;
62852;SDS011;49205;44.868;38.140;2022-10-16T16:25:24;19.92;;;10.03;;
62852;SDS011;49205;44.868;38.140;2022-10-16T16:27:53;18.32;;;9.65;;
62852;SDS011;49205;44.868;38.140;2022-10-16T16:30:22;16.27;;;9.50;;
62852;SDS011;49205;44.868;38.140;2022-10-16T16:32:52;18.73;;;10.08;;